Time;durP1;ratioP1;P1;durP2;ratioP2;P2;SDS_P1;SDS_P2;PMS_P1;PMS_P2;Temp;Humidity;BMP_temperature;BMP_pressure;BME280_temperature;BME280_humidity;BME280_pressure;Samples;Min_cycle;Max_cycle;Signal;HPM_P1;HPM_P2
2022/07/27 00:01:16;;;;;;;8.27;1.52;;;16.10;99.90;;;;;;5030306;28;20056;-77
2022/07/27 00:03:43;;;;;;;5.00;1.27;;;16.10;99.90;;;;;;5031445;28;20488;-77
2022/07/27 00:06:11;;;;;;;7.38;1.38;;;16.10;99.90;;;;;;5030224;28;20044;-78
2022/07/27 00:08:37;;;;;;;7.57;1.17;;;16.10;99.90;;;;;;5048963;28;20112;-75
2022/07/27 00:11:03;;;;;;;7.05;1.35;;;16.10;99.90;;;;;;5029919;28;20054;-76
2022/07/27 00:13:29;;;;;;;5.53;1.65;;;16.20;99.90;;;;;;5048205;28;20029;-76
2022/07/27 00:15:55;;;;;;;4.22;1.17;;;16.20;99.90;;;;;;5049360;28;20048;-76
2022/07/27 00:18:21;;;;;;;3.90;0.90;;;16.20;99.90;;;;;;5048104;28;20021;-76
2022/07/27 00:20:46;;;;;;;6.43;1.30;;;16.20;99.90;;;;;;5048672;28;20515;-76
2022/07/27 00:23:12;;;;;;;9.30;1.63;;;16.20;99.90;;;;;;5028572;28;20025;-76
2022/07/27 00:25:38;;;;;;;4.15;1.20;;;16.30;99.90;;;;;;5049260;28;20028;-76
2022/07/27 00:28:04;;;;;;;6.32;1.15;;;16.20;99.90;;;;;;5032822;28;20033;-77
2022/07/27 00:30:30;;;;;;;8.02;2.08;;;16.30;99.90;;;;;;5033395;28;20039;-77
2022/07/27 00:32:56;;;;;;;5.60;1.02;;;16.30;99.90;;;;;;5048804;28;20021;-77
2022/07/27 00:35:22;;;;;;;4.40;1.20;;;16.30;99.90;;;;;;5030967;28;20408;-76
2022/07/27 00:37:47;;;;;;;8.57;1.67;;;16.30;99.90;;;;;;5051504;28;20484;-75
2022/07/27 00:40:13;;;;;;;6.65;1.55;;;16.30;99.90;;;;;;5048560;28;20404;-77
2022/07/27 00:42:39;;;;;;;3.53;1.20;;;16.30;99.90;;;;;;5029803;28;20033;-76
2022/07/27 00:45:06;;;;;;;6.82;1.50;;;16.30;99.90;;;;;;5048511;28;20029;-76
2022/07/27 00:47:32;;;;;;;6.78;1.75;;;16.20;99.90;;;;;;5035799;28;20040;-76
2022/07/27 00:49:58;;;;;;;8.30;1.58;;;16.20;99.90;;;;;;5032830;28;20021;-76
2022/07/27 00:52:24;;;;;;;4.57;1.10;;;16.20;99.90;;;;;;5033482;28;20025;-76
2022/07/27 00:54:50;;;;;;;6.50;1.20;;;16.20;99.90;;;;;;5035351;28;20021;-77
2022/07/27 00:57:16;;;;;;;3.45;1.00;;;16.20;99.90;;;;;;5034203;28;20037;-77
2022/07/27 00:59:43;;;;;;;7.78;1.10;;;16.20;99.90;;;;;;5051818;28;20032;-76
2022/07/27 01:02:09;;;;;;;5.28;1.77;;;16.20;99.90;;;;;;5032249;28;20028;-76
2022/07/27 01:04:35;;;;;;;10.13;1.15;;;16.20;99.90;;;;;;5033708;28;20043;-77
2022/07/27 01:07:04;;;;;;;6.70;1.23;;;16.30;99.90;;;;;;5035299;28;20060;-77
2022/07/27 01:12:17;;;;;;;4.82;1.27;;;16.20;99.90;;;;;;5051219;28;20021;-77
2022/07/27 01:14:44;;;;;;;3.47;0.98;;;16.20;99.90;;;;;;5033254;28;20421;-76
2022/07/27 01:17:09;;;;;;;4.20;1.73;;;16.20;99.90;;;;;;5033275;28;20056;-76
2022/07/27 01:19:35;;;;;;;8.13;1.35;;;16.20;99.90;;;;;;5050688;28;20029;-77
2022/07/27 01:22:02;;;;;;;8.32;1.40;;;16.20;99.90;;;;;;5050691;28;20087;-76
2022/07/27 01:24:27;;;;;;;7.53;1.70;;;16.20;99.90;;;;;;5036577;28;20029;-77
2022/07/27 01:26:53;;;;;;;8.57;1.55;;;16.20;99.90;;;;;;5053978;28;20033;-76
2022/07/27 01:29:19;;;;;;;8.05;1.48;;;16.20;99.90;;;;;;5032905;28;20033;-76
2022/07/27 01:31:45;;;;;;;9.18;1.55;;;16.20;99.90;;;;;;5049305;28;20502;-76
2022/07/27 01:34:10;;;;;;;7.65;1.30;;;16.10;99.90;;;;;;5031839;28;20531;-76
2022/07/27 01:36:36;;;;;;;5.22;1.48;;;16.10;99.90;;;;;;5033579;28;20033;-77
2022/07/27 01:39:02;;;;;;;5.70;1.40;;;16.20;99.90;;;;;;5057813;28;20110;-77
2022/07/27 01:41:28;;;;;;;6.32;1.17;;;16.20;99.90;;;;;;5055142;28;20029;-77
2022/07/27 01:43:54;;;;;;;2.75;1.05;;;16.20;99.90;;;;;;5038766;28;20141;-77
2022/07/27 01:46:19;;;;;;;5.88;1.25;;;16.10;99.90;;;;;;5056385;28;20035;-77
2022/07/27 01:48:45;;;;;;;4.53;1.60;;;16.10;99.90;;;;;;5055252;28;20103;-77
2022/07/27 01:51:10;;;;;;;5.32;1.20;;;16.10;99.90;;;;;;5030944;28;20029;-77
2022/07/27 01:53:36;;;;;;;13.90;1.55;;;16.20;99.90;;;;;;5050655;28;20079;-77
2022/07/27 01:56:02;;;;;;;5.32;1.60;;;16.10;99.90;;;;;;5052655;28;20033;-77
2022/07/27 01:58:28;;;;;;;5.55;1.27;;;16.10;99.90;;;;;;5033187;28;20025;-76
2022/07/27 02:00:54;;;;;;;4.85;1.50;;;16.10;99.90;;;;;;5047759;28;20025;-76
2022/07/27 02:03:19;;;;;;;9.00;1.65;;;16.10;99.90;;;;;;5053285;28;20074;-77
2022/07/27 02:05:45;;;;;;;3.05;1.10;;;16.10;99.90;;;;;;5015295;28;20021;-77
2022/07/27 02:08:12;;;;;;;2.58;1.00;;;16.10;99.90;;;;;;5031446;28;20119;-76
2022/07/27 02:12:34;;;;;;;5.72;1.40;;;16.10;99.90;;;;;;5031758;28;20330;-77
2022/07/27 02:13:24;;;;;;;4.85;1.08;;;16.10;99.90;;;;;;5051748;28;20485;-76
2022/07/27 02:15:50;;;;;;;3.95;1.17;;;16.10;99.90;;;;;;5031250;28;20786;-76
2022/07/27 02:18:16;;;;;;;6.30;0.95;;;16.00;99.90;;;;;;5050686;28;20029;-77
2022/07/27 02:20:41;;;;;;;6.20;1.42;;;16.00;99.90;;;;;;5048744;28;20028;-77
2022/07/27 02:23:07;;;;;;;6.63;2.20;;;16.00;99.90;;;;;;5034794;28;20500;-77
2022/07/27 02:25:34;;;;;;;6.25;1.20;;;16.00;99.90;;;;;;5031906;28;20039;-77
2022/07/27 02:28:00;;;;;;;7.95;1.10;;;15.90;99.90;;;;;;5054545;28;20115;-76
2022/07/27 02:30:26;;;;;;;6.85;1.10;;;15.90;99.90;;;;;;5024063;28;20029;-77
2022/07/27 02:32:52;;;;;;;7.72;1.00;;;15.80;99.90;;;;;;5036654;28;20444;-76
2022/07/27 02:35:18;;;;;;;6.60;1.27;;;15.80;99.90;;;;;;5048582;28;20033;-77
2022/07/27 02:37:43;;;;;;;6.45;1.20;;;15.80;99.90;;;;;;5052606;28;20503;-77
2022/07/27 02:40:10;;;;;;;8.75;1.48;;;15.80;99.90;;;;;;5031845;28;20032;-77
2022/07/27 02:42:35;;;;;;;7.35;1.70;;;15.80;99.90;;;;;;5030248;28;20039;-76
2022/07/27 02:45:01;;;;;;;7.30;1.92;;;15.80;99.90;;;;;;5031379;28;20108;-76
2022/07/27 02:47:27;;;;;;;5.47;1.27;;;15.80;99.90;;;;;;5051286;28;20404;-76
2022/07/27 02:49:53;;;;;;;4.93;1.10;;;15.70;99.90;;;;;;5047483;28;20025;-77
2022/07/27 02:52:18;;;;;;;7.35;1.55;;;15.70;99.90;;;;;;5049610;28;20500;-77
2022/07/27 02:54:44;;;;;;;6.55;1.38;;;15.80;99.90;;;;;;5030410;28;20029;-76
2022/07/27 02:57:10;;;;;;;7.03;1.10;;;15.80;99.90;;;;;;5052030;28;20029;-76
2022/07/27 02:59:35;;;;;;;4.80;1.00;;;15.80;99.90;;;;;;5027266;28;20033;-76
2022/07/27 03:02:01;;;;;;;5.57;1.48;;;15.80;99.90;;;;;;5050671;28;20036;-76
2022/07/27 03:04:27;;;;;;;7.32;1.35;;;15.80;99.90;;;;;;5048208;28;20028;-77
2022/07/27 03:06:52;;;;;;;6.50;1.27;;;15.80;99.90;;;;;;5016620;28;20021;-76
2022/07/27 03:09:18;;;;;;;3.83;0.85;;;15.80;99.90;;;;;;5050206;28;20033;-77
2022/07/27 03:11:44;;;;;;;6.30;1.25;;;15.80;99.90;;;;;;5017498;28;20025;-76
2022/07/27 03:14:10;;;;;;;6.93;1.40;;;15.80;99.90;;;;;;5015637;28;20123;-77
2022/07/27 03:16:35;;;;;;;4.50;1.27;;;15.70;99.90;;;;;;5030488;28;20099;-76
2022/07/27 03:19:01;;;;;;;5.18;1.33;;;15.70;99.90;;;;;;5050826;28;20219;-77
2022/07/27 03:21:27;;;;;;;6.40;1.45;;;15.70;99.90;;;;;;5047709;28;20033;-76
2022/07/27 03:23:52;;;;;;;6.20;1.35;;;15.70;99.90;;;;;;5033915;28;20459;-77
2022/07/27 03:26:18;;;;;;;5.15;1.45;;;15.70;99.90;;;;;;5030777;28;20044;-77
2022/07/27 03:28:44;;;;;;;7.80;2.13;;;15.60;99.90;;;;;;5036030;28;20060;-77
2022/07/27 03:31:10;;;;;;;7.93;1.67;;;15.60;99.90;;;;;;5056561;28;20059;-77
2022/07/27 03:33:36;;;;;;;4.55;1.30;;;15.50;99.90;;;;;;5025093;28;20025;-78
2022/07/27 03:36:03;;;;;;;8.30;2.13;;;15.50;99.90;;;;;;5049308;28;20029;-76
2022/07/27 03:38:28;;;;;;;4.95;1.40;;;15.50;99.90;;;;;;5046774;28;20035;-75
2022/07/27 03:40:54;;;;;;;6.72;1.23;;;15.40;99.90;;;;;;5029704;28;20176;-76
2022/07/27 03:43:20;;;;;;;5.90;1.48;;;15.40;99.90;;;;;;5032602;28;20025;-77
2022/07/27 03:45:46;;;;;;;5.13;1.33;;;15.50;99.90;;;;;;5048390;28;20112;-79
2022/07/27 03:48:11;;;;;;;6.70;1.20;;;15.40;99.90;;;;;;5028184;28;20033;-76
2022/07/27 03:50:37;;;;;;;5.75;1.17;;;15.40;99.90;;;;;;5032469;28;20040;-76
2022/07/27 03:53:03;;;;;;;7.93;1.63;;;15.50;99.90;;;;;;5032316;28;20405;-76
2022/07/27 03:55:29;;;;;;;6.78;1.60;;;15.40;99.90;;;;;;5034777;28;20044;-77
2022/07/27 03:57:54;;;;;;;4.18;1.50;;;15.40;99.90;;;;;;5052486;28;20504;-76
2022/07/27 04:00:20;;;;;;;6.35;1.60;;;15.40;99.90;;;;;;5031462;28;20044;-76
2022/07/27 04:02:46;;;;;;;4.40;1.13;;;15.40;99.90;;;;;;5032603;28;20028;-77
2022/07/27 04:05:12;;;;;;;4.63;1.40;;;15.40;99.90;;;;;;5028282;28;20036;-76
2022/07/27 04:07:39;;;;;;;7.55;2.13;;;15.40;99.90;;;;;;5030471;28;20493;-77
2022/07/27 04:10:05;;;;;;;7.35;1.95;;;15.30;99.90;;;;;;5049630;28;20037;-77
2022/07/27 04:12:34;;;;;;;6.22;1.60;;;15.30;99.90;;;;;;5031229;28;20082;-77
2022/07/27 04:15:00;;;;;;;5.00;1.30;;;15.30;99.90;;;;;;5047492;28;20474;-77
2022/07/27 04:17:25;;;;;;;6.57;1.70;;;15.10;99.90;;;;;;5014442;28;20028;-78
2022/07/27 04:19:51;;;;;;;5.10;1.50;;;15.10;99.90;;;;;;5031867;28;20111;-77
2022/07/27 04:22:16;;;;;;;6.90;1.60;;;15.20;99.90;;;;;;5048009;28;20515;-76
2022/07/27 04:24:42;;;;;;;2.97;1.10;;;15.20;99.90;;;;;;5031482;28;20540;-77
2022/07/27 04:27:08;;;;;;;9.95;1.45;;;15.20;99.90;;;;;;5051921;28;20040;-77
2022/07/27 04:29:34;;;;;;;7.53;1.83;;;15.20;99.90;;;;;;5035581;28;20035;-77
2022/07/27 04:32:00;;;;;;;3.22;1.35;;;15.20;99.90;;;;;;5039050;28;20060;-77
2022/07/27 04:34:25;;;;;;;5.93;1.67;;;15.20;99.90;;;;;;5040743;28;20033;-78
2022/07/27 04:36:51;;;;;;;5.38;1.70;;;15.20;99.90;;;;;;5055155;28;20556;-77
2022/07/27 04:39:17;;;;;;;7.93;1.23;;;15.20;99.90;;;;;;5051544;28;20079;-75
2022/07/27 04:41:42;;;;;;;6.07;1.42;;;15.20;99.90;;;;;;5033155;28;20025;-76
2022/07/27 04:44:08;;;;;;;9.43;1.42;;;15.20;99.90;;;;;;5033002;28;20058;-76
2022/07/27 04:46:34;;;;;;;3.97;1.13;;;15.30;99.90;;;;;;5050911;28;20090;-78
2022/07/27 04:48:59;;;;;;;7.07;1.92;;;15.30;99.90;;;;;;5033914;28;20036;-77
2022/07/27 04:51:25;;;;;;;6.55;1.45;;;15.30;99.90;;;;;;5052874;28;20021;-77
2022/07/27 04:53:51;;;;;;;8.43;2.00;;;15.40;99.90;;;;;;5034491;28;20496;-78
2022/07/27 04:56:17;;;;;;;4.55;0.90;;;15.50;99.90;;;;;;5027750;28;20043;-76
2022/07/27 04:58:42;;;;;;;4.80;1.13;;;15.50;99.90;;;;;;5051378;28;20104;-76
2022/07/27 05:01:11;;;;;;;9.20;1.52;;;15.50;99.90;;;;;;5048175;28;20086;-78
2022/07/27 05:03:38;;;;;;;6.03;1.33;;;15.60;99.90;;;;;;5032917;28;20033;-76
2022/07/27 05:06:04;;;;;;;7.63;1.45;;;15.60;99.90;;;;;;5015842;28;20382;-77
2022/07/27 05:08:30;;;;;;;4.82;1.40;;;15.60;99.90;;;;;;5050670;28;20028;-77
2022/07/27 05:10:55;;;;;;;6.57;1.30;;;15.70;99.90;;;;;;5046867;28;20047;-76
2022/07/27 05:13:21;;;;;;;4.72;1.23;;;15.70;99.90;;;;;;5050238;28;20029;-76
2022/07/27 05:15:47;;;;;;;7.43;1.60;;;15.70;99.90;;;;;;5048225;28;20039;-76
2022/07/27 05:18:13;;;;;;;8.63;1.77;;;15.70;99.90;;;;;;5034124;28;20033;-77
2022/07/27 05:20:39;;;;;;;3.63;1.02;;;15.70;99.90;;;;;;5047239;28;20439;-76
2022/07/27 05:23:04;;;;;;;4.78;1.70;;;15.70;99.90;;;;;;5031586;28;20120;-76
2022/07/27 05:25:30;;;;;;;8.82;1.60;;;15.70;99.90;;;;;;5048921;28;20029;-76
2022/07/27 05:27:56;;;;;;;4.93;1.30;;;15.70;99.90;;;;;;5049332;28;20033;-78
2022/07/27 05:30:24;;;;;;;5.75;1.30;;;15.70;99.90;;;;;;5051564;28;20111;-78
2022/07/27 05:32:50;;;;;;;4.78;1.13;;;15.70;99.90;;;;;;5030836;28;20025;-77
2022/07/27 05:35:15;;;;;;;7.32;1.70;;;15.80;99.90;;;;;;4975178;28;1265492;-77
2022/07/27 05:37:41;;;;;;;13.98;2.10;;;15.70;99.90;;;;;;5049951;28;20029;-76
2022/07/27 05:40:09;;;;;;;7.53;1.50;;;15.80;99.90;;;;;;5036244;28;20066;-76
2022/07/27 05:42:35;;;;;;;9.07;1.77;;;15.80;99.90;;;;;;5033276;28;20111;-72
2022/07/27 05:45:00;;;;;;;7.82;1.95;;;15.90;99.90;;;;;;5031184;28;20033;-73
2022/07/27 05:47:26;;;;;;;7.78;2.13;;;15.90;99.90;;;;;;5049834;28;20413;-73
2022/07/27 05:49:52;;;;;;;7.35;1.75;;;15.90;99.90;;;;;;5033713;28;20029;-72
2022/07/27 05:52:19;;;;;;;8.90;1.70;;;16.00;99.90;;;;;;5050311;28;20112;-76
2022/07/27 05:54:45;;;;;;;7.90;1.45;;;16.00;99.90;;;;;;5037970;28;20025;-79
2022/07/27 05:57:14;;;;;;;8.57;1.98;;;16.00;99.90;;;;;;5032766;28;20589;-77
2022/07/27 05:59:40;;;;;;;7.65;1.77;;;16.00;99.90;;;;;;5034030;28;20456;-77
2022/07/27 06:02:07;;;;;;;6.10;1.55;;;16.00;99.90;;;;;;5032423;28;20036;-76
2022/07/27 06:04:35;;;;;;;8.00;1.73;;;16.00;99.90;;;;;;5031549;28;20029;-76
2022/07/27 06:09:44;;;;;;;10.88;1.92;;;16.10;99.90;;;;;;5037925;28;20021;-77
2022/07/27 06:12:11;;;;;;;8.25;1.60;;;16.10;99.90;;;;;;5039184;28;20040;-76
2022/07/27 06:14:37;;;;;;;5.50;1.40;;;16.10;99.90;;;;;;5058939;28;20044;-77
2022/07/27 06:17:03;;;;;;;7.38;1.40;;;16.00;99.90;;;;;;5047640;28;20025;-77
2022/07/27 06:19:30;;;;;;;5.40;1.55;;;16.10;99.90;;;;;;5057558;28;20040;-77
2022/07/27 06:21:56;;;;;;;7.72;1.70;;;16.00;99.90;;;;;;5049546;28;20056;-75
2022/07/27 06:24:22;;;;;;;7.43;1.73;;;16.10;99.90;;;;;;5050450;28;20074;-76
2022/07/27 06:26:48;;;;;;;8.85;1.70;;;16.10;99.90;;;;;;5030255;28;20386;-76
2022/07/27 06:29:13;;;;;;;6.43;1.33;;;16.20;99.90;;;;;;5048726;28;20028;-76
2022/07/27 06:31:39;;;;;;;6.75;1.73;;;16.30;99.90;;;;;;5028165;28;20981;-76
2022/07/27 06:34:05;;;;;;;5.97;1.20;;;16.30;99.90;;;;;;5028619;28;20226;-75
2022/07/27 06:36:30;;;;;;;8.07;1.90;;;16.40;99.90;;;;;;5036213;28;20044;-76
2022/07/27 06:38:56;;;;;;;9.85;1.90;;;16.30;99.90;;;;;;5017273;28;20044;-77
2022/07/27 06:41:22;;;;;;;4.93;1.58;;;16.40;99.90;;;;;;5023645;28;20040;-76
2022/07/27 06:43:48;;;;;;;8.40;1.33;;;16.30;99.90;;;;;;5018480;28;20037;-75
2022/07/27 06:46:14;;;;;;;6.28;1.20;;;16.30;99.90;;;;;;5016257;28;20040;-76
2022/07/27 06:48:40;;;;;;;8.50;1.63;;;16.30;99.90;;;;;;5016201;28;20114;-76
2022/07/27 06:51:06;;;;;;;13.35;2.05;;;16.40;99.90;;;;;;5014507;28;20056;-77
2022/07/27 06:53:33;;;;;;;11.63;1.50;;;16.40;99.90;;;;;;5018806;28;20029;-74
2022/07/27 06:56:02;;;;;;;9.18;1.95;;;16.40;99.90;;;;;;5019812;28;20029;-76
2022/07/27 06:58:32;;;;;;;8.75;2.10;;;16.40;99.90;;;;;;5015258;28;20025;-75
2022/07/27 07:01:00;;;;;;;5.57;1.70;;;16.50;99.90;;;;;;5017180;28;20060;-76
2022/07/27 07:03:27;;;;;;;6.13;1.77;;;16.40;99.90;;;;;;5043708;28;20400;-75
2022/07/27 07:05:53;;;;;;;5.50;1.40;;;16.50;99.90;;;;;;5029638;28;20027;-74
2022/07/27 07:08:20;;;;;;;7.78;1.95;;;16.50;99.90;;;;;;5045846;28;21687;-75
2022/07/27 07:10:46;;;;;;;7.28;1.67;;;16.50;99.90;;;;;;5025385;28;20053;-74
2022/07/27 07:13:11;;;;;;;7.88;2.03;;;16.60;99.90;;;;;;5030443;28;20061;-76
2022/07/27 07:15:39;;;;;;;4.22;1.38;;;16.60;99.90;;;;;;5028397;28;20080;-75
2022/07/27 07:18:06;;;;;;;5.47;1.40;;;16.70;99.90;;;;;;5045527;28;20039;-76
2022/07/27 07:20:32;;;;;;;5.38;1.52;;;16.80;99.90;;;;;;5025966;28;20036;-76
2022/07/27 07:22:59;;;;;;;4.22;1.35;;;16.70;99.90;;;;;;5029753;28;20086;-75
2022/07/27 07:25:25;;;;;;;5.75;1.35;;;16.70;99.90;;;;;;5012979;28;20055;-76
2022/07/27 07:27:51;;;;;;;6.57;1.50;;;16.60;99.90;;;;;;5045821;28;20103;-76
2022/07/27 07:30:16;;;;;;;7.15;1.80;;;16.60;99.90;;;;;;5028558;28;20037;-75
2022/07/27 07:32:42;;;;;;;16.45;1.73;;;16.70;99.90;;;;;;5026768;28;20036;-76
2022/07/27 07:35:08;;;;;;;4.75;1.30;;;16.70;99.90;;;;;;5028050;28;20029;-77
2022/07/27 07:37:34;;;;;;;4.55;1.20;;;16.80;99.90;;;;;;5028751;28;20029;-77
2022/07/27 07:40:00;;;;;;;7.85;1.55;;;16.80;99.90;;;;;;5012922;28;20033;-75
2022/07/27 07:42:26;;;;;;;5.13;1.63;;;16.80;99.90;;;;;;5031227;28;20468;-76
2022/07/27 07:44:51;;;;;;;6.93;1.42;;;16.90;99.90;;;;;;5032327;28;20052;-77
2022/07/27 07:47:17;;;;;;;6.88;1.23;;;16.90;99.90;;;;;;5031422;28;20060;-77
2022/07/27 07:49:43;;;;;;;6.20;2.17;;;16.90;99.90;;;;;;5048537;28;20045;-76
2022/07/27 07:52:08;;;;;;;5.55;1.30;;;16.90;99.90;;;;;;5047791;28;20032;-76
2022/07/27 07:54:34;;;;;;;9.10;2.20;;;17.00;99.90;;;;;;5030508;28;20051;-76
2022/07/27 07:57:00;;;;;;;6.65;1.80;;;17.00;99.90;;;;;;5028329;28;20541;-77
2022/07/27 07:59:26;;;;;;;7.85;1.38;;;17.00;99.90;;;;;;5053093;28;20033;-77
2022/07/27 08:01:52;;;;;;;7.05;1.40;;;17.00;99.90;;;;;;5050889;28;20105;-77
2022/07/27 08:04:17;;;;;;;6.35;1.13;;;17.10;99.90;;;;;;5028440;28;20025;-76
2022/07/27 08:06:44;;;;;;;8.77;1.40;;;17.10;99.90;;;;;;5028159;28;20033;-76
2022/07/27 08:09:12;;;;;;;7.15;1.73;;;17.20;99.90;;;;;;5028395;28;20032;-75
2022/07/27 08:11:38;;;;;;;7.57;1.42;;;17.30;99.90;;;;;;5031382;28;20084;-75
2022/07/27 08:14:03;;;;;;;5.03;1.20;;;17.40;99.90;;;;;;5030953;28;20029;-77
2022/07/27 08:16:29;;;;;;;6.57;1.42;;;17.40;99.90;;;;;;5031605;28;20048;-75
2022/07/27 08:18:55;;;;;;;8.75;1.52;;;17.40;99.90;;;;;;5031184;28;20528;-76
2022/07/27 08:21:20;;;;;;;4.93;1.20;;;17.30;99.90;;;;;;5048678;28;20361;-76
2022/07/27 08:23:46;;;;;;;8.63;1.50;;;17.30;99.90;;;;;;5049108;28;20167;-77
2022/07/27 08:26:12;;;;;;;5.50;1.85;;;17.30;99.90;;;;;;5046779;28;20466;-77
2022/07/27 08:28:38;;;;;;;8.88;1.95;;;17.30;99.90;;;;;;5049919;28;20485;-76
2022/07/27 08:31:04;;;;;;;9.60;1.70;;;17.30;99.90;;;;;;5031566;28;20075;-76
2022/07/27 08:33:29;;;;;;;5.45;1.80;;;17.30;99.90;;;;;;5031457;28;20116;-76
2022/07/27 08:35:56;;;;;;;5.53;1.65;;;17.40;99.90;;;;;;5048733;28;20561;-76
2022/07/27 08:38:22;;;;;;;12.45;1.42;;;17.50;99.90;;;;;;5030685;28;20592;-76
2022/07/27 08:40:49;;;;;;;6.78;1.63;;;17.60;99.90;;;;;;5031053;28;20396;-76
2022/07/27 08:43:15;;;;;;;7.70;1.70;;;17.70;99.90;;;;;;5046117;28;20037;-77
2022/07/27 08:45:44;;;;;;;5.75;1.40;;;17.70;99.90;;;;;;5046561;28;20028;-75
2022/07/27 08:48:14;;;;;;;10.85;2.55;;;17.80;99.90;;;;;;5049004;28;20091;-76
2022/07/27 08:50:40;;;;;;;8.20;1.55;;;17.90;99.90;;;;;;5045096;28;20032;-76
2022/07/27 08:53:08;;;;;;;3.45;1.30;;;17.80;99.80;;;;;;5049120;28;20091;-76
2022/07/27 08:55:36;;;;;;;7.78;1.58;;;17.90;97.90;;;;;;5047900;28;20036;-76
2022/07/27 08:58:03;;;;;;;7.85;2.22;;;17.90;98.10;;;;;;5047501;28;20032;-76
2022/07/27 09:00:29;;;;;;;7.45;1.80;;;18.00;98.40;;;;;;5027103;28;20029;-75
2022/07/27 09:02:55;;;;;;;9.30;1.40;;;18.00;97.80;;;;;;5026728;28;20057;-76
2022/07/27 09:05:21;;;;;;;8.02;1.67;;;18.10;97.80;;;;;;5045462;28;20033;-76
2022/07/27 09:07:47;;;;;;;4.20;1.30;;;18.10;96.60;;;;;;5011932;28;20078;-76
2022/07/27 09:10:32;;;;;;;6.68;1.50;;;18.10;96.50;;;;;;5048174;28;20029;-75
2022/07/27 09:12:58;;;;;;;7.13;1.42;;;18.20;96.50;;;;;;5050837;28;20126;-75
2022/07/27 09:15:25;;;;;;;5.00;1.10;;;18.40;96.40;;;;;;5051061;28;20029;-76
2022/07/27 09:17:51;;;;;;;4.32;1.55;;;18.50;95.70;;;;;;5034998;28;20052;-76
2022/07/27 09:20:19;;;;;;;8.20;1.70;;;18.50;96.00;;;;;;5049150;28;20032;-76
2022/07/27 09:22:51;;;;;;;6.25;1.30;;;18.50;95.10;;;;;;5051733;28;20124;-76
2022/07/27 09:25:25;;;;;;;4.25;1.27;;;18.50;95.10;;;;;;5048003;28;20033;-75
2022/07/27 09:27:56;;;;;;;7.72;1.98;;;18.60;96.40;;;;;;5045331;28;21069;-76
2022/07/27 09:30:23;;;;;;;;;;;18.60;95.00;;;;;;5046951;28;20017;-76
2022/07/27 09:33:03;;;;;;;4.95;1.30;;;18.50;95.40;;;;;;5046657;28;19917;-76
2022/07/27 09:35:34;;;;;;;4.25;1.75;;;18.30;94.40;;;;;;5034033;28;20104;-76
2022/07/27 09:38:15;;;;;;;;;;;18.50;94.40;;;;;;5031844;28;20106;-76
2022/07/27 09:40:41;;;;;;;4.75;1.15;;;18.50;93.60;;;;;;5055003;28;19920;-77
2022/07/27 09:43:12;;;;;;;5.53;1.30;;;18.60;92.50;;;;;;5036794;28;20051;-76
2022/07/27 09:45:39;;;;;;;;;;;18.70;92.20;;;;;;5052327;28;20040;-76
2022/07/27 09:48:12;;;;;;;4.63;0.90;;;18.70;92.60;;;;;;5051506;28;19995;-76
2022/07/27 09:51:02;;;;;;;5.78;1.27;;;18.70;91.30;;;;;;5051634;28;20029;-75
2022/07/27 09:53:34;;;;;;;4.13;0.95;;;18.70;91.10;;;;;;5027610;28;20037;-77
2022/07/27 09:56:12;;;;;;;3.67;1.40;;;18.80;91.30;;;;;;5051586;28;20264;-77
2022/07/27 09:58:44;;;;;;;3.60;1.30;;;18.90;91.10;;;;;;5033213;28;21475;-76
2022/07/27 10:01:13;;;;;;;5.05;1.17;;;18.80;91.50;;;;;;5028923;28;20040;-76
2022/07/27 10:03:40;;;;;;;6.57;1.40;;;18.90;91.30;;;;;;5044524;28;20061;-76
2022/07/27 10:06:07;;;;;;;7.97;1.70;;;18.90;91.40;;;;;;5047510;28;20066;-76
2022/07/27 10:08:35;;;;;;;5.63;1.60;;;18.70;91.40;;;;;;5047103;28;20059;-76
2022/07/27 10:11:01;;;;;;;5.80;1.42;;;18.70;91.50;;;;;;5048595;28;20055;-76
2022/07/27 10:13:26;;;;;;;4.65;1.35;;;18.70;92.30;;;;;;5032376;28;20021;-77
2022/07/27 10:15:53;;;;;;;4.72;1.63;;;18.80;92.80;;;;;;5051331;28;20070;-76
2022/07/27 10:18:28;;;;;;;3.40;1.10;;;19.00;92.90;;;;;;5017558;28;20462;-76
2022/07/27 10:20:57;;;;;;;4.38;1.25;;;19.10;92.60;;;;;;5030779;28;20020;-76
2022/07/27 10:23:28;;;;;;;8.00;1.98;;;19.00;93.10;;;;;;5051059;28;20033;-77
2022/07/27 10:26:12;;;;;;;8.75;1.52;;;18.90;93.30;;;;;;5050719;28;20029;-77
2022/07/27 10:28:48;;;;;;;7.57;1.58;;;18.80;93.70;;;;;;5050133;28;20512;-76
2022/07/27 10:31:17;;;;;;;5.75;1.30;;;18.90;93.60;;;;;;5050897;28;20112;-76
2022/07/27 10:33:48;;;;;;;6.57;1.30;;;19.00;93.50;;;;;;5032728;28;20021;-76
2022/07/27 10:36:26;;;;;;;8.05;1.45;;;18.90;93.00;;;;;;5048789;28;20107;-77
2022/07/27 10:38:55;;;;;;;7.60;1.73;;;19.00;92.90;;;;;;5050508;28;20132;-77
2022/07/27 10:41:30;;;;;;;10.30;1.25;;;19.20;92.50;;;;;;5034927;28;20565;-77
2022/07/27 10:44:16;;;;;;;5.30;1.33;;;19.20;92.60;;;;;;5049342;28;20035;-77
2022/07/27 10:47:26;;;;;;;7.90;1.20;;;19.20;92.70;;;;;;5052458;28;20056;-76
2022/07/27 10:50:15;;;;;;;7.50;1.20;;;19.10;91.90;;;;;;5019803;28;20044;-76
2022/07/27 10:52:48;;;;;;;5.40;1.30;;;19.10;91.60;;;;;;5032699;28;20112;-76
2022/07/27 10:55:29;;;;;;;8.80;1.23;;;19.20;92.50;;;;;;5045629;28;20029;-76
2022/07/27 10:57:59;;;;;;;9.05;1.40;;;19.40;91.30;;;;;;5033745;28;20028;-76
2022/07/27 11:00:49;;;;;;;7.63;1.20;;;19.30;90.50;;;;;;5026414;28;20099;-75
2022/07/27 11:03:23;;;;;;;3.37;1.40;;;19.40;88.90;;;;;;5047074;28;20090;-75
2022/07/27 11:06:04;;;;;;;3.60;1.13;;;19.50;88.80;;;;;;5030950;28;20048;-76
2022/07/27 11:08:39;;;;;;;5.85;1.25;;;19.60;88.10;;;;;;5028218;28;20045;-76
2022/07/27 11:11:06;;;;;;;4.07;0.90;;;19.60;85.50;;;;;;5041993;28;20037;-76
2022/07/27 11:13:33;;;;;;;6.03;1.48;;;19.60;86.10;;;;;;5016570;28;20428;-77
2022/07/27 11:16:06;;;;;;;4.13;1.38;;;19.50;84.20;;;;;;5031452;28;20024;-75
2022/07/27 11:18:35;;;;;;;5.10;1.13;;;19.50;83.70;;;;;;5031094;28;20053;-76
2022/07/27 11:21:21;;;;;;;3.67;0.88;;;19.50;83.60;;;;;;5030426;28;20035;-77
2022/07/27 11:24:05;;;;;;;4.80;1.88;;;20.30;81.60;;;;;;5045645;28;20021;-77
2022/07/27 11:26:38;;;;;;;4.72;1.30;;;20.30;80.90;;;;;;5034154;28;20104;-77
2022/07/27 11:29:10;;;;;;;4.35;1.15;;;20.10;84.10;;;;;;5033079;28;20025;-77
2022/07/27 11:31:36;;;;;;;8.30;1.77;;;19.60;87.70;;;;;;5050348;28;20017;-77
2022/07/27 11:34:03;;;;;;;7.35;1.63;;;19.50;90.40;;;;;;5015716;28;20087;-77
2022/07/27 11:36:44;;;;;;;8.90;1.98;;;19.40;91.10;;;;;;5052496;28;20036;-76
2022/07/27 11:39:12;;;;;;;6.75;1.33;;;19.50;91.10;;;;;;5037377;28;20127;-77
2022/07/27 11:41:39;;;;;;;8.70;1.70;;;19.40;91.30;;;;;;5029287;28;20118;-77
2022/07/27 11:44:10;;;;;;;3.35;0.98;;;19.30;91.10;;;;;;5050525;28;20037;-77
2022/07/27 11:46:41;;;;;;;4.70;1.38;;;19.30;91.70;;;;;;5049754;28;20112;-76
2022/07/27 11:49:27;;;;;;;5.57;1.50;;;19.30;91.10;;;;;;5031476;28;20029;-77
2022/07/27 11:52:03;;;;;;;6.53;1.48;;;19.50;90.70;;;;;;5045324;28;20108;-76
2022/07/27 11:54:40;;;;;;;6.18;1.17;;;19.80;87.00;;;;;;5024616;28;20084;-75
2022/07/27 11:57:11;;;;;;;5.82;1.52;;;20.40;85.70;;;;;;5042286;28;20134;-75
2022/07/27 11:59:42;;;;;;;7.70;1.25;;;21.00;84.10;;;;;;5022055;28;20516;-75
2022/07/27 12:02:14;;;;;;;4.75;1.00;;;21.10;82.90;;;;;;5025288;28;20609;-75
2022/07/27 12:04:43;;;;;;;5.32;1.33;;;21.10;83.60;;;;;;5039979;28;20036;-77
2022/07/27 12:07:11;;;;;;;4.35;1.48;;;20.80;82.60;;;;;;5023863;28;20581;-76
2022/07/27 12:09:43;;;;;;;4.95;1.23;;;20.50;83.90;;;;;;5007563;28;20036;-76
2022/07/27 12:12:13;;;;;;;5.45;1.20;;;20.20;84.20;;;;;;5024216;28;20077;-76
2022/07/27 12:14:56;;;;;;;5.30;1.20;;;20.10;86.80;;;;;;5023214;28;20544;-77
2022/07/27 12:17:28;;;;;;;7.00;1.83;;;20.00;88.00;;;;;;5021971;28;20493;-77
2022/07/27 12:20:06;;;;;;;4.70;1.10;;;19.80;87.30;;;;;;5042944;28;20056;-76
2022/07/27 12:22:36;;;;;;;6.85;1.10;;;19.90;88.50;;;;;;5040281;28;20025;-78
2022/07/27 12:25:06;;;;;;;7.90;1.25;;;20.10;89.00;;;;;;5048168;28;20029;-77
2022/07/27 12:27:32;;;;;;;7.13;1.45;;;20.00;88.00;;;;;;5031944;28;20525;-77
2022/07/27 12:30:04;;;;;;;5.32;1.45;;;20.00;89.10;;;;;;5026476;28;20045;-77
2022/07/27 12:32:33;;;;;;;6.07;1.42;;;20.40;90.00;;;;;;5045225;28;20028;-77
2022/07/27 12:34:59;;;;;;;5.43;1.15;;;20.60;89.20;;;;;;5040898;28;20036;-76
2022/07/27 12:37:30;;;;;;;6.50;1.35;;;20.50;87.90;;;;;;5027954;28;20524;-76
2022/07/27 12:39:55;;;;;;;;;;;20.30;88.80;;;;;;5011415;28;20032;-76
2022/07/27 12:42:31;;;;;;;4.80;1.52;;;20.30;87.70;;;;;;5036414;28;20331;-76
2022/07/27 12:44:57;;;;;;;11.93;1.75;;;20.00;88.80;;;;;;5049589;28;20025;-76
2022/07/27 12:47:41;;;;;;;6.07;1.92;;;20.00;89.00;;;;;;5032767;28;20082;-76
2022/07/27 12:50:25;;;;;;;4.60;1.30;;;19.90;88.80;;;;;;5048349;28;20373;-76
2022/07/27 12:52:52;;;;;;;7.18;1.30;;;19.80;89.30;;;;;;5033305;28;20060;-76
2022/07/27 12:55:21;;;;;;;5.65;1.50;;;19.70;89.40;;;;;;5030056;28;20116;-76
2022/07/27 12:57:48;;;;;;;7.95;1.90;;;19.70;90.00;;;;;;5008493;28;20131;-76